Pagrindinis puslapis
METAR-TAF:

METAR-TAF

Oro uostai :

Kristiansandas, Norvegija

platuma: 58-12N, ilguma: 008-05E, Aukštis: 1 m

Dabartinis oras

Ataskaita buvo paskelbta 29 minutes, ne 03:50 UTC
Vėjas 11 kt iš Pietvakarių
Temperatūra 5°C
Drėgmė 70%
Slėgis 999 hPa
Matomumas 10 km arba daugiau
Su prošvaistėmis ne aukštis 4200 ft
dulksna

METAR: ENCN 020350Z 23011KT 9999 -DZ BKN042 05/00 Q0999

Laikas: 06:19 (04:19 UTC)

Prognozė

Ataskaita buvo paskelbta 2 valandos ir 19 minutes, ne 02:00 UTC
Prognozė galioja nuo 02 metu 03 UTC su 02 metu 12 UTC
Vėjas 15 kt iš Vakarų/Pietvakarių
Matomumas 10 km arba daugiau
Išsisklaidę debesys ne aukštis 3000 ft
Tapsmas
nuo 02 metu 06 UTC su 02 metu 08 UTC
Vėjas 25 kt iš Vakarų/Pietvakarių
Laikinai
nuo 02 metu 08 UTC su 02 metu 12 UTC
Vėjas 30 kt iš Vakarų/Pietvakarių su gūsio iki 42 kt
Išsisklaidę debesys ne aukštis 1800 ft, Liūtiniai kamuoliniai debesys.
Su prošvaistėmis ne aukštis 2500 ft
lietus

TAF: ENCN 020200Z 0203/0212 25015KT 9999 SCT030 BECMG 0206/0208 25025KT TEMPO 0208/0212 25030G42KT SHRA SCT018CB BKN025

Orai ataskaitas ir orų prognozės (METAR, TAF).

turimą stotys yra geltonos ir raudonos taškus žemėlapyje.

Perkelti pele per norėdami pamatyti stoties vardą.

Tada spustelėkite, norėdami matyti oro stebėjimo ir prognozės.

Norėdami pakeisti žemėlapį: spustelėkite ant žalios mygtukų su juodo kryžiaus žemyn,; žalią mygtuką su brūkšneliu, jei norite nutolinti; arba žalių rodyklių gretimoms žemėlapius.


METAR-TAF: